sensor_id;sensor_type;location;lat;lon;timestamp;temperature;humidity
34135;DHT22;20410;55.578;12.968;2023-03-12T00:01:58;1.70;1.00
34135;DHT22;20410;55.578;12.968;2023-03-12T00:04:24;1.70;1.00
34135;DHT22;20410;55.578;12.968;2023-03-12T00:06:50;1.60;1.00
34135;DHT22;20410;55.578;12.968;2023-03-12T00:09:16;1.60;1.00
34135;DHT22;20410;55.578;12.968;2023-03-12T00:11:41;1.60;1.00
34135;DHT22;20410;55.578;12.968;2023-03-12T00:14:07;1.60;1.00
34135;DHT22;20410;55.578;12.968;2023-03-12T00:16:32;1.60;1.00
34135;DHT22;20410;55.578;12.968;2023-03-12T00:18:58;1.50;1.00
34135;DHT22;20410;55.578;12.968;2023-03-12T00:21:24;1.50;1.00
34135;DHT22;20410;55.578;12.968;2023-03-12T00:23:50;1.50;1.00
34135;DHT22;20410;55.578;12.968;2023-03-12T00:26:17;1.50;1.00
34135;DHT22;20410;55.578;12.968;2023-03-12T00:28:43;1.50;1.00
34135;DHT22;20410;55.578;12.968;2023-03-12T00:31:28;1.50;1.00
34135;DHT22;20410;55.578;12.968;2023-03-12T00:33:56;1.50;1.00
34135;DHT22;20410;55.578;12.968;2023-03-12T00:36:23;1.40;1.00
34135;DHT22;20410;55.578;12.968;2023-03-12T00:38:51;1.40;1.00
34135;DHT22;20410;55.578;12.968;2023-03-12T00:41:17;1.40;1.00
34135;DHT22;20410;55.578;12.968;2023-03-12T00:43:46;1.40;1.00
34135;DHT22;20410;55.578;12.968;2023-03-12T00:46:12;1.40;1.00
34135;DHT22;20410;55.578;12.968;2023-03-12T00:48:38;1.30;1.00
34135;DHT22;20410;55.578;12.968;2023-03-12T00:51:04;1.30;1.00
34135;DHT22;20410;55.578;12.968;2023-03-12T00:53:29;1.40;1.00
34135;DHT22;20410;55.578;12.968;2023-03-12T00:55:55;1.40;1.00
34135;DHT22;20410;55.578;12.968;2023-03-12T00:58:20;1.40;1.00
34135;DHT22;20410;55.578;12.968;2023-03-12T01:00:46;1.40;1.00
34135;DHT22;20410;55.578;12.968;2023-03-12T01:03:12;1.30;1.00
34135;DHT22;20410;55.578;12.968;2023-03-12T01:05:38;1.30;1.00
34135;DHT22;20410;55.578;12.968;2023-03-12T01:08:06;1.30;1.00
34135;DHT22;20410;55.578;12.968;2023-03-12T01:10:31;1.30;1.00
34135;DHT22;20410;55.578;12.968;2023-03-12T01:12:57;1.30;1.00
34135;DHT22;20410;55.578;12.968;2023-03-12T01:15:23;1.30;1.00
34135;DHT22;20410;55.578;12.968;2023-03-12T01:17:48;1.30;1.00
34135;DHT22;20410;55.578;12.968;2023-03-12T01:20:14;1.30;1.00
34135;DHT22;20410;55.578;12.968;2023-03-12T01:22:40;1.30;1.00
34135;DHT22;20410;55.578;12.968;2023-03-12T01:25:06;1.30;1.00
34135;DHT22;20410;55.578;12.968;2023-03-12T01:27:32;1.40;1.00
34135;DHT22;20410;55.578;12.968;2023-03-12T01:29:57;1.40;1.00
34135;DHT22;20410;55.578;12.968;2023-03-12T01:32:23;1.40;1.00
34135;DHT22;20410;55.578;12.968;2023-03-12T01:34:48;1.30;1.00
34135;DHT22;20410;55.578;12.968;2023-03-12T01:37:14;1.30;1.00
34135;DHT22;20410;55.578;12.968;2023-03-12T01:39:40;1.30;1.00
34135;DHT22;20410;55.578;12.968;2023-03-12T01:42:05;1.30;1.00
34135;DHT22;20410;55.578;12.968;2023-03-12T01:44:54;1.40;1.00
34135;DHT22;20410;55.578;12.968;2023-03-12T01:47:21;1.40;1.00
34135;DHT22;20410;55.578;12.968;2023-03-12T01:49:49;1.30;1.00
34135;DHT22;20410;55.578;12.968;2023-03-12T01:52:28;1.40;1.00
34135;DHT22;20410;55.578;12.968;2023-03-12T01:55:09;1.40;1.00
34135;DHT22;20410;55.578;12.968;2023-03-12T01:57:50;1.40;1.00
34135;DHT22;20410;55.578;12.968;2023-03-12T02:00:19;1.30;1.00
34135;DHT22;20410;55.578;12.968;2023-03-12T02:02:47;1.30;1.00
34135;DHT22;20410;55.578;12.968;2023-03-12T02:06:23;1.40;1.00
34135;DHT22;20410;55.578;12.968;2023-03-12T02:08:17;1.30;1.00
34135;DHT22;20410;55.578;12.968;2023-03-12T02:10:43;1.30;1.00
34135;DHT22;20410;55.578;12.968;2023-03-12T02:13:09;1.30;1.00
34135;DHT22;20410;55.578;12.968;2023-03-12T02:15:39;1.30;1.00
34135;DHT22;20410;55.578;12.968;2023-03-12T02:18:07;1.30;1.00
34135;DHT22;20410;55.578;12.968;2023-03-12T02:25:57;1.30;1.00
34135;DHT22;20410;55.578;12.968;2023-03-12T02:28:32;1.30;1.00
34135;DHT22;20410;55.578;12.968;2023-03-12T02:31:08;1.30;1.00
34135;DHT22;20410;55.578;12.968;2023-03-12T02:33:44;1.30;1.00
34135;DHT22;20410;55.578;12.968;2023-03-12T02:36:21;1.20;1.00
34135;DHT22;20410;55.578;12.968;2023-03-12T02:38:56;1.20;1.00
34135;DHT22;20410;55.578;12.968;2023-03-12T02:46:29;1.20;1.00
34135;DHT22;20410;55.578;12.968;2023-03-12T02:49:00;1.20;1.00
34135;DHT22;20410;55.578;12.968;2023-03-12T02:51:26;1.20;1.00
34135;DHT22;20410;55.578;12.968;2023-03-12T02:53:54;1.20;1.00
34135;DHT22;20410;55.578;12.968;2023-03-12T02:56:22;1.20;1.00
34135;DHT22;20410;55.578;12.968;2023-03-12T02:58:48;1.20;1.00
34135;DHT22;20410;55.578;12.968;2023-03-12T03:01:14;1.20;1.00
34135;DHT22;20410;55.578;12.968;2023-03-12T03:03:40;1.20;1.00
34135;DHT22;20410;55.578;12.968;2023-03-12T03:06:21;1.20;1.00
34135;DHT22;20410;55.578;12.968;2023-03-12T03:08:47;1.20;1.00
34135;DHT22;20410;55.578;12.968;2023-03-12T03:11:12;1.20;1.00
34135;DHT22;20410;55.578;12.968;2023-03-12T03:13:38;1.10;1.00
34135;DHT22;20410;55.578;12.968;2023-03-12T03:16:04;1.20;1.00
34135;DHT22;20410;55.578;12.968;2023-03-12T03:18:31;1.10;1.00
34135;DHT22;20410;55.578;12.968;2023-03-12T03:21:04;1.10;1.00
34135;DHT22;20410;55.578;12.968;2023-03-12T03:23:50;1.20;1.00
34135;DHT22;20410;55.578;12.968;2023-03-12T03:26:19;1.20;1.00
34135;DHT22;20410;55.578;12.968;2023-03-12T03:28:51;1.20;1.00
34135;DHT22;20410;55.578;12.968;2023-03-12T03:31:17;1.20;1.00
34135;DHT22;20410;55.578;12.968;2023-03-12T03:33:46;1.20;1.00
34135;DHT22;20410;55.578;12.968;2023-03-12T03:36:18;1.20;1.00
34135;DHT22;20410;55.578;12.968;2023-03-12T03:38:53;1.20;1.00
34135;DHT22;20410;55.578;12.968;2023-03-12T03:41:22;1.30;1.00
34135;DHT22;20410;55.578;12.968;2023-03-12T03:43:48;1.20;1.00
34135;DHT22;20410;55.578;12.968;2023-03-12T03:46:17;1.20;1.00
34135;DHT22;20410;55.578;12.968;2023-03-12T03:48:43;1.30;1.00
34135;DHT22;20410;55.578;12.968;2023-03-12T03:51:10;1.30;1.00
34135;DHT22;20410;55.578;12.968;2023-03-12T03:53:35;1.30;1.00
34135;DHT22;20410;55.578;12.968;2023-03-12T03:56:13;1.30;1.00
34135;DHT22;20410;55.578;12.968;2023-03-12T03:58:39;1.30;1.00
34135;DHT22;20410;55.578;12.968;2023-03-12T04:01:05;1.30;1.00
34135;DHT22;20410;55.578;12.968;2023-03-12T04:03:32;1.30;1.00
34135;DHT22;20410;55.578;12.968;2023-03-12T04:06:07;1.40;1.00
34135;DHT22;20410;55.578;12.968;2023-03-12T04:08:34;1.30;1.00
34135;DHT22;20410;55.578;12.968;2023-03-12T04:11:11;1.30;1.00
34135;DHT22;20410;55.578;12.968;2023-03-12T04:13:38;1.30;1.00
34135;DHT22;20410;55.578;12.968;2023-03-12T04:16:10;1.30;1.00
34135;DHT22;20410;55.578;12.968;2023-03-12T04:18:44;1.30;1.00
34135;DHT22;20410;55.578;12.968;2023-03-12T04:21:14;1.30;1.00
34135;DHT22;20410;55.578;12.968;2023-03-12T04:23:43;1.30;1.00
34135;DHT22;20410;55.578;12.968;2023-03-12T04:26:08;1.30;1.00
34135;DHT22;20410;55.578;12.968;2023-03-12T04:28:37;1.30;1.00
34135;DHT22;20410;55.578;12.968;2023-03-12T04:31:05;1.30;1.00
34135;DHT22;20410;55.578;12.968;2023-03-12T04:33:34;1.30;1.00
34135;DHT22;20410;55.578;12.968;2023-03-12T04:36:03;1.20;1.00
34135;DHT22;20410;55.578;12.968;2023-03-12T04:38:29;1.20;1.00
34135;DHT22;20410;55.578;12.968;2023-03-12T04:41:11;1.20;1.00
34135;DHT22;20410;55.578;12.968;2023-03-12T04:43:37;1.30;99.90
34135;DHT22;20410;55.578;12.968;2023-03-12T04:46:03;1.30;99.90
34135;DHT22;20410;55.578;12.968;2023-03-12T04:48:33;1.30;99.90
34135;DHT22;20410;55.578;12.968;2023-03-12T04:50:58;1.20;1.00
34135;DHT22;20410;55.578;12.968;2023-03-12T04:53:25;1.20;1.00
34135;DHT22;20410;55.578;12.968;2023-03-12T04:55:53;1.20;99.90
34135;DHT22;20410;55.578;12.968;2023-03-12T04:58:20;1.20;99.90
34135;DHT22;20410;55.578;12.968;2023-03-12T05:00:50;1.20;99.90
34135;DHT22;20410;55.578;12.968;2023-03-12T05:03:16;1.20;99.90
34135;DHT22;20410;55.578;12.968;2023-03-12T05:05:42;1.20;99.90
34135;DHT22;20410;55.578;12.968;2023-03-12T05:08:08;1.20;99.90
34135;DHT22;20410;55.578;12.968;2023-03-12T05:10:34;1.20;99.90
34135;DHT22;20410;55.578;12.968;2023-03-12T05:12:59;1.10;99.90
34135;DHT22;20410;55.578;12.968;2023-03-12T05:16:16;1.20;99.90
34135;DHT22;20410;55.578;12.968;2023-03-12T05:18:35;1.20;99.90
34135;DHT22;20410;55.578;12.968;2023-03-12T05:21:04;1.20;99.90
34135;DHT22;20410;55.578;12.968;2023-03-12T05:23:31;1.20;99.90
34135;DHT22;20410;55.578;12.968;2023-03-12T05:25:57;1.20;99.90
34135;DHT22;20410;55.578;12.968;2023-03-12T05:28:23;1.20;99.90
34135;DHT22;20410;55.578;12.968;2023-03-12T05:30:59;1.10;99.90
34135;DHT22;20410;55.578;12.968;2023-03-12T05:33:26;1.20;99.90
34135;DHT22;20410;55.578;12.968;2023-03-12T05:35:53;1.20;99.90
34135;DHT22;20410;55.578;12.968;2023-03-12T05:38:19;1.20;99.90
34135;DHT22;20410;55.578;12.968;2023-03-12T05:40:53;1.20;99.90
34135;DHT22;20410;55.578;12.968;2023-03-12T05:43:18;1.10;99.90
34135;DHT22;20410;55.578;12.968;2023-03-12T05:45:45;1.20;99.90
34135;DHT22;20410;55.578;12.968;2023-03-12T05:48:15;1.20;99.90
34135;DHT22;20410;55.578;12.968;2023-03-12T05:50:41;1.20;99.90
34135;DHT22;20410;55.578;12.968;2023-03-12T05:53:06;1.20;99.90
34135;DHT22;20410;55.578;12.968;2023-03-12T05:55:37;1.20;99.90
34135;DHT22;20410;55.578;12.968;2023-03-12T05:58:04;1.20;99.90
34135;DHT22;20410;55.578;12.968;2023-03-12T06:00:30;1.20;99.90
34135;DHT22;20410;55.578;12.968;2023-03-12T06:02:56;1.10;99.90
34135;DHT22;20410;55.578;12.968;2023-03-12T06:05:22;1.20;99.90
34135;DHT22;20410;55.578;12.968;2023-03-12T06:07:48;1.20;99.90
34135;DHT22;20410;55.578;12.968;2023-03-12T06:10:17;1.20;99.90
34135;DHT22;20410;55.578;12.968;2023-03-12T06:12:43;1.30;99.90
34135;DHT22;20410;55.578;12.968;2023-03-12T06:15:09;1.30;99.90
34135;DHT22;20410;55.578;12.968;2023-03-12T06:17:35;1.40;99.90
34135;DHT22;20410;55.578;12.968;2023-03-12T06:20:01;1.40;99.90
34135;DHT22;20410;55.578;12.968;2023-03-12T06:22:26;1.50;99.90
34135;DHT22;20410;55.578;12.968;2023-03-12T06:24:53;1.50;99.90
34135;DHT22;20410;55.578;12.968;2023-03-12T06:27:19;1.50;99.90
34135;DHT22;20410;55.578;12.968;2023-03-12T06:29:48;1.50;99.90
34135;DHT22;20410;55.578;12.968;2023-03-12T06:32:17;1.50;99.90
34135;DHT22;20410;55.578;12.968;2023-03-12T06:34:43;1.60;99.90
34135;DHT22;20410;55.578;12.968;2023-03-12T06:37:10;1.60;99.90
34135;DHT22;20410;55.578;12.968;2023-03-12T06:39:36;1.60;99.90
34135;DHT22;20410;55.578;12.968;2023-03-12T06:42:02;1.70;99.90
34135;DHT22;20410;55.578;12.968;2023-03-12T06:44:31;1.80;99.90
34135;DHT22;20410;55.578;12.968;2023-03-12T06:47:02;1.80;99.90
34135;DHT22;20410;55.578;12.968;2023-03-12T06:49:27;1.80;99.90
34135;DHT22;20410;55.578;12.968;2023-03-12T06:51:56;1.90;99.90
34135;DHT22;20410;55.578;12.968;2023-03-12T06:54:22;1.90;99.90
34135;DHT22;20410;55.578;12.968;2023-03-12T06:56:48;1.90;99.90
34135;DHT22;20410;55.578;12.968;2023-03-12T06:59:14;1.90;99.90
34135;DHT22;20410;55.578;12.968;2023-03-12T07:01:39;1.90;99.90
34135;DHT22;20410;55.578;12.968;2023-03-12T07:04:05;2.00;1.00
34135;DHT22;20410;55.578;12.968;2023-03-12T07:06:31;2.00;1.00
34135;DHT22;20410;55.578;12.968;2023-03-12T07:09:00;2.00;1.00
34135;DHT22;20410;55.578;12.968;2023-03-12T07:11:30;2.00;1.00
34135;DHT22;20410;55.578;12.968;2023-03-12T07:13:56;2.00;1.00
34135;DHT22;20410;55.578;12.968;2023-03-12T07:16:42;2.00;1.00
34135;DHT22;20410;55.578;12.968;2023-03-12T07:19:08;2.00;1.00
34135;DHT22;20410;55.578;12.968;2023-03-12T07:21:39;2.00;1.00
34135;DHT22;20410;55.578;12.968;2023-03-12T07:24:09;2.10;1.00
34135;DHT22;20410;55.578;12.968;2023-03-12T07:26:34;2.10;1.00
34135;DHT22;20410;55.578;12.968;2023-03-12T07:29:01;2.10;1.00
34135;DHT22;20410;55.578;12.968;2023-03-12T07:31:27;2.20;1.00
34135;DHT22;20410;55.578;12.968;2023-03-12T07:34:07;2.30;1.00
34135;DHT22;20410;55.578;12.968;2023-03-12T07:36:33;2.40;1.00
34135;DHT22;20410;55.578;12.968;2023-03-12T07:38:59;2.40;1.00
34135;DHT22;20410;55.578;12.968;2023-03-12T07:41:28;2.50;1.00
34135;DHT22;20410;55.578;12.968;2023-03-12T07:43:54;2.60;1.00
34135;DHT22;20410;55.578;12.968;2023-03-12T07:46:20;2.70;1.00
34135;DHT22;20410;55.578;12.968;2023-03-12T07:48:46;2.70;1.00
34135;DHT22;20410;55.578;12.968;2023-03-12T07:51:12;2.80;1.00
34135;DHT22;20410;55.578;12.968;2023-03-12T07:53:37;2.80;1.00
34135;DHT22;20410;55.578;12.968;2023-03-12T07:56:03;2.90;1.00
34135;DHT22;20410;55.578;12.968;2023-03-12T07:58:29;2.90;1.00
34135;DHT22;20410;55.578;12.968;2023-03-12T08:00:55;3.00;1.00
34135;DHT22;20410;55.578;12.968;2023-03-12T08:03:21;3.10;1.00
34135;DHT22;20410;55.578;12.968;2023-03-12T08:05:55;3.10;1.00
34135;DHT22;20410;55.578;12.968;2023-03-12T08:08:21;3.20;1.00
34135;DHT22;20410;55.578;12.968;2023-03-12T08:10:47;3.20;1.00
34135;DHT22;20410;55.578;12.968;2023-03-12T08:13:12;3.30;1.00
34135;DHT22;20410;55.578;12.968;2023-03-12T08:15:38;3.30;1.00
34135;DHT22;20410;55.578;12.968;2023-03-12T08:18:03;3.30;1.00
34135;DHT22;20410;55.578;12.968;2023-03-12T08:20:29;3.30;1.00
34135;DHT22;20410;55.578;12.968;2023-03-12T08:22:55;3.30;1.00
34135;DHT22;20410;55.578;12.968;2023-03-12T08:25:20;3.30;1.00
34135;DHT22;20410;55.578;12.968;2023-03-12T08:27:48;3.40;99.90
34135;DHT22;20410;55.578;12.968;2023-03-12T08:30:14;3.30;99.90
34135;DHT22;20410;55.578;12.968;2023-03-12T08:32:40;3.30;99.90
34135;DHT22;20410;55.578;12.968;2023-03-12T08:35:06;3.40;99.90
34135;DHT22;20410;55.578;12.968;2023-03-12T08:37:31;3.40;99.90
34135;DHT22;20410;55.578;12.968;2023-03-12T08:39:57;3.40;99.90
34135;DHT22;20410;55.578;12.968;2023-03-12T08:42:23;3.30;99.90
34135;DHT22;20410;55.578;12.968;2023-03-12T08:44:49;3.40;99.90
34135;DHT22;20410;55.578;12.968;2023-03-12T08:47:14;3.50;99.90
34135;DHT22;20410;55.578;12.968;2023-03-12T08:49:40;3.60;99.90
34135;DHT22;20410;55.578;12.968;2023-03-12T08:52:05;3.60;99.90
34135;DHT22;20410;55.578;12.968;2023-03-12T08:54:31;3.70;99.90
34135;DHT22;20410;55.578;12.968;2023-03-12T08:56:57;3.80;99.90
34135;DHT22;20410;55.578;12.968;2023-03-12T08:59:22;3.80;99.90
34135;DHT22;20410;55.578;12.968;2023-03-12T09:01:48;3.90;99.90
34135;DHT22;20410;55.578;12.968;2023-03-12T09:04:14;3.90;99.90
34135;DHT22;20410;55.578;12.968;2023-03-12T09:06:40;3.90;99.90
34135;DHT22;20410;55.578;12.968;2023-03-12T09:09:06;3.90;99.90
34135;DHT22;20410;55.578;12.968;2023-03-12T09:11:34;3.90;99.90
34135;DHT22;20410;55.578;12.968;2023-03-12T09:14:01;3.90;99.90
34135;DHT22;20410;55.578;12.968;2023-03-12T09:16:26;4.00;99.90
34135;DHT22;20410;55.578;12.968;2023-03-12T09:18:52;4.10;99.90
34135;DHT22;20410;55.578;12.968;2023-03-12T09:21:18;4.20;99.90
34135;DHT22;20410;55.578;12.968;2023-03-12T09:23:44;4.20;99.90
34135;DHT22;20410;55.578;12.968;2023-03-12T09:26:11;4.30;99.90
34135;DHT22;20410;55.578;12.968;2023-03-12T09:28:36;4.40;99.90
34135;DHT22;20410;55.578;12.968;2023-03-12T09:31:03;4.30;99.90
34135;DHT22;20410;55.578;12.968;2023-03-12T09:33:30;4.20;99.90
34135;DHT22;20410;55.578;12.968;2023-03-12T09:35:59;4.30;99.90
34135;DHT22;20410;55.578;12.968;2023-03-12T09:38:25;4.50;99.90
34135;DHT22;20410;55.578;12.968;2023-03-12T09:40:51;4.50;99.90
34135;DHT22;20410;55.578;12.968;2023-03-12T09:43:44;4.50;99.90
34135;DHT22;20410;55.578;12.968;2023-03-12T09:46:37;4.60;99.90
34135;DHT22;20410;55.578;12.968;2023-03-12T09:49:31;4.80;99.90
34135;DHT22;20410;55.578;12.968;2023-03-12T09:51:56;4.90;99.90
34135;DHT22;20410;55.578;12.968;2023-03-12T09:54:31;4.90;99.90
34135;DHT22;20410;55.578;12.968;2023-03-12T09:57:02;4.90;99.90
34135;DHT22;20410;55.578;12.968;2023-03-12T09:59:33;4.90;99.90
34135;DHT22;20410;55.578;12.968;2023-03-12T10:02:01;5.00;99.90
34135;DHT22;20410;55.578;12.968;2023-03-12T10:04:43;5.10;99.90
34135;DHT22;20410;55.578;12.968;2023-03-12T10:12:32;5.10;32.00
34135;DHT22;20410;55.578;12.968;2023-03-12T10:26:59;4.90;54.90
34135;DHT22;20410;55.578;12.968;2023-03-12T10:29:33;4.90;25.50
34135;DHT22;20410;55.578;12.968;2023-03-12T10:32:06;5.00;1.90
34135;DHT22;20410;55.578;12.968;2023-03-12T10:34:45;5.10;6.90
34135;DHT22;20410;55.578;12.968;2023-03-12T10:39:42;5.10;32.50
34135;DHT22;20410;55.578;12.968;2023-03-12T10:42:15;5.20;1.00
34135;DHT22;20410;55.578;12.968;2023-03-12T10:44:41;5.20;1.00
34135;DHT22;20410;55.578;12.968;2023-03-12T10:47:24;4.90;1.00
34135;DHT22;20410;55.578;12.968;2023-03-12T10:49:51;4.60;1.00
34135;DHT22;20410;55.578;12.968;2023-03-12T10:52:22;4.60;37.60
34135;DHT22;20410;55.578;12.968;2023-03-12T10:54:50;4.80;37.50
34135;DHT22;20410;55.578;12.968;2023-03-12T10:57:16;4.70;1.00
34135;DHT22;20410;55.578;12.968;2023-03-12T10:59:44;4.80;1.00
34135;DHT22;20410;55.578;12.968;2023-03-12T11:02:42;4.90;1.00
34135;DHT22;20410;55.578;12.968;2023-03-12T11:05:28;4.90;1.00
34135;DHT22;20410;55.578;12.968;2023-03-12T11:07:55;4.90;1.00
34135;DHT22;20410;55.578;12.968;2023-03-12T11:10:26;5.00;1.00
34135;DHT22;20410;55.578;12.968;2023-03-12T11:13:05;5.10;44.70
34135;DHT22;20410;55.578;12.968;2023-03-12T11:15:41;5.10;1.00
34135;DHT22;20410;55.578;12.968;2023-03-12T11:18:36;5.00;16.70
34135;DHT22;20410;55.578;12.968;2023-03-12T11:23:35;5.20;1.00
34135;DHT22;20410;55.578;12.968;2023-03-12T11:26:04;5.30;52.50
34135;DHT22;20410;55.578;12.968;2023-03-12T11:28:37;5.30;1.00
34135;DHT22;20410;55.578;12.968;2023-03-12T11:31:08;5.30;3.20
34135;DHT22;20410;55.578;12.968;2023-03-12T11:33:35;5.20;1.00
34135;DHT22;20410;55.578;12.968;2023-03-12T11:36:26;5.40;1.00
34135;DHT22;20410;55.578;12.968;2023-03-12T11:39:08;5.70;99.90
34135;DHT22;20410;55.578;12.968;2023-03-12T11:44:24;6.40;99.90
34135;DHT22;20410;55.578;12.968;2023-03-12T11:47:15;6.90;99.90
34135;DHT22;20410;55.578;12.968;2023-03-12T11:50:11;7.30;99.90
34135;DHT22;20410;55.578;12.968;2023-03-12T12:01:49;7.70;99.90
34135;DHT22;20410;55.578;12.968;2023-03-12T12:09:59;7.60;99.90
34135;DHT22;20410;55.578;12.968;2023-03-12T12:17:58;7.50;99.90
34135;DHT22;20410;55.578;12.968;2023-03-12T12:20:52;7.50;99.90
34135;DHT22;20410;55.578;12.968;2023-03-12T12:23:31;7.30;99.90
34135;DHT22;20410;55.578;12.968;2023-03-12T12:26:12;7.30;99.90
34135;DHT22;20410;55.578;12.968;2023-03-12T12:31:21;7.20;99.90
34135;DHT22;20410;55.578;12.968;2023-03-12T12:36:34;7.40;99.90
34135;DHT22;20410;55.578;12.968;2023-03-12T12:39:14;7.40;99.90
34135;DHT22;20410;55.578;12.968;2023-03-12T12:41:50;7.40;99.90
34135;DHT22;20410;55.578;12.968;2023-03-12T12:44:20;7.40;99.90
34135;DHT22;20410;55.578;12.968;2023-03-12T12:46:52;7.30;99.90
34135;DHT22;20410;55.578;12.968;2023-03-12T12:51:52;7.30;99.90
34135;DHT22;20410;55.578;12.968;2023-03-12T12:54:25;7.50;99.90
34135;DHT22;20410;55.578;12.968;2023-03-12T13:02:38;7.70;71.30
34135;DHT22;20410;55.578;12.968;2023-03-12T13:05:26;7.60;39.10
34135;DHT22;20410;55.578;12.968;2023-03-12T13:07:52;7.60;99.90
34135;DHT22;20410;55.578;12.968;2023-03-12T13:10:47;7.60;99.90
34135;DHT22;20410;55.578;12.968;2023-03-12T13:13:21;7.60;99.90
34135;DHT22;20410;55.578;12.968;2023-03-12T13:15:47;7.60;99.90
34135;DHT22;20410;55.578;12.968;2023-03-12T13:26:25;7.20;99.90
34135;DHT22;20410;55.578;12.968;2023-03-12T13:31:38;7.30;99.90
34135;DHT22;20410;55.578;12.968;2023-03-12T13:36:52;7.40;99.90
34135;DHT22;20410;55.578;12.968;2023-03-12T13:39:34;7.50;99.90
34135;DHT22;20410;55.578;12.968;2023-03-12T13:42:01;7.60;99.90
34135;DHT22;20410;55.578;12.968;2023-03-12T13:44:46;7.70;99.90
34135;DHT22;20410;55.578;12.968;2023-03-12T13:47:35;7.80;99.90
34135;DHT22;20410;55.578;12.968;2023-03-12T13:50:07;7.90;99.90
34135;DHT22;20410;55.578;12.968;2023-03-12T13:52:49;7.80;99.90
34135;DHT22;20410;55.578;12.968;2023-03-12T13:55:32;7.80;99.90
34135;DHT22;20410;55.578;12.968;2023-03-12T14:00:55;7.90;99.90
34135;DHT22;20410;55.578;12.968;2023-03-12T14:03:28;7.90;99.90
34135;DHT22;20410;55.578;12.968;2023-03-12T14:16:43;7.70;99.90
34135;DHT22;20410;55.578;12.968;2023-03-12T14:19:18;7.70;99.90
34135;DHT22;20410;55.578;12.968;2023-03-12T14:21:47;7.60;99.90
34135;DHT22;20410;55.578;12.968;2023-03-12T14:24:32;7.50;99.90
34135;DHT22;20410;55.578;12.968;2023-03-12T14:27:01;7.50;99.90
34135;DHT22;20410;55.578;12.968;2023-03-12T14:29:40;7.50;99.90
34135;DHT22;20410;55.578;12.968;2023-03-12T14:32:14;7.40;99.90
34135;DHT22;20410;55.578;12.968;2023-03-12T14:34:44;7.20;99.90
34135;DHT22;20410;55.578;12.968;2023-03-12T14:37:26;7.10;99.90
34135;DHT22;20410;55.578;12.968;2023-03-12T14:39:55;7.10;99.90
34135;DHT22;20410;55.578;12.968;2023-03-12T14:42:33;7.10;99.90
34135;DHT22;20410;55.578;12.968;2023-03-12T14:45:10;7.00;99.90
34135;DHT22;20410;55.578;12.968;2023-03-12T14:47:47;7.00;99.90
34135;DHT22;20410;55.578;12.968;2023-03-12T14:50:36;6.90;99.90
34135;DHT22;20410;55.578;12.968;2023-03-12T14:53:13;6.80;99.90
34135;DHT22;20410;55.578;12.968;2023-03-12T14:55:41;6.70;1.00
34135;DHT22;20410;55.578;12.968;2023-03-12T14:58:16;6.70;1.00
34135;DHT22;20410;55.578;12.968;2023-03-12T15:00:43;6.70;1.00
34135;DHT22;20410;55.578;12.968;2023-03-12T15:03:14;6.80;1.00
34135;DHT22;20410;55.578;12.968;2023-03-12T15:05:48;6.80;1.00
34135;DHT22;20410;55.578;12.968;2023-03-12T15:08:15;6.70;1.00
34135;DHT22;20410;55.578;12.968;2023-03-12T15:10:48;6.70;1.00
34135;DHT22;20410;55.578;12.968;2023-03-12T15:13:15;6.60;1.00
34135;DHT22;20410;55.578;12.968;2023-03-12T15:15:45;6.60;1.00
34135;DHT22;20410;55.578;12.968;2023-03-12T15:18:16;6.60;1.00
34135;DHT22;20410;55.578;12.968;2023-03-12T15:20:42;6.60;1.00
34135;DHT22;20410;55.578;12.968;2023-03-12T15:23:11;6.60;1.00
34135;DHT22;20410;55.578;12.968;2023-03-12T15:25:37;6.60;1.00
34135;DHT22;20410;55.578;12.968;2023-03-12T15:28:05;6.50;1.00
34135;DHT22;20410;55.578;12.968;2023-03-12T15:30:32;6.40;1.00
34135;DHT22;20410;55.578;12.968;2023-03-12T15:35:29;6.40;1.00
34135;DHT22;20410;55.578;12.968;2023-03-12T15:37:55;6.30;1.00
34135;DHT22;20410;55.578;12.968;2023-03-12T15:40:24;6.20;1.00
34135;DHT22;20410;55.578;12.968;2023-03-12T15:42:50;6.10;1.00
34135;DHT22;20410;55.578;12.968;2023-03-12T15:45:28;6.10;1.00
34135;DHT22;20410;55.578;12.968;2023-03-12T15:47:55;6.10;1.00
34135;DHT22;20410;55.578;12.968;2023-03-12T15:50:26;6.00;1.00
34135;DHT22;20410;55.578;12.968;2023-03-12T15:52:58;5.90;1.00
34135;DHT22;20410;55.578;12.968;2023-03-12T15:55:28;5.80;1.00
34135;DHT22;20410;55.578;12.968;2023-03-12T15:57:55;5.80;1.00
34135;DHT22;20410;55.578;12.968;2023-03-12T16:00:28;5.60;99.90
34135;DHT22;20410;55.578;12.968;2023-03-12T16:02:59;5.60;99.90
34135;DHT22;20410;55.578;12.968;2023-03-12T16:05:34;5.50;99.90
34135;DHT22;20410;55.578;12.968;2023-03-12T16:08:09;5.40;99.90
34135;DHT22;20410;55.578;12.968;2023-03-12T16:10:37;5.40;99.90
34135;DHT22;20410;55.578;12.968;2023-03-12T16:13:03;5.50;99.90
34135;DHT22;20410;55.578;12.968;2023-03-12T16:15:35;5.50;99.90
34135;DHT22;20410;55.578;12.968;2023-03-12T16:18:02;5.50;99.90
34135;DHT22;20410;55.578;12.968;2023-03-12T16:20:28;5.50;1.00
34135;DHT22;20410;55.578;12.968;2023-03-12T16:22:54;5.60;1.00
34135;DHT22;20410;55.578;12.968;2023-03-12T16:25:20;5.60;1.00
34135;DHT22;20410;55.578;12.968;2023-03-12T16:27:52;5.50;99.90
34135;DHT22;20410;55.578;12.968;2023-03-12T16:30:25;5.50;1.00
34135;DHT22;20410;55.578;12.968;2023-03-12T16:32:52;5.50;1.00
34135;DHT22;20410;55.578;12.968;2023-03-12T16:35:18;5.50;1.00
34135;DHT22;20410;55.578;12.968;2023-03-12T16:37:45;5.50;1.00
34135;DHT22;20410;55.578;12.968;2023-03-12T16:40:13;5.50;1.00
34135;DHT22;20410;55.578;12.968;2023-03-12T16:42:41;5.50;1.00
34135;DHT22;20410;55.578;12.968;2023-03-12T16:45:10;5.60;1.00
34135;DHT22;20410;55.578;12.968;2023-03-12T16:47:37;5.60;1.00
34135;DHT22;20410;55.578;12.968;2023-03-12T16:50:18;5.60;1.00
34135;DHT22;20410;55.578;12.968;2023-03-12T16:52:45;5.60;1.00
34135;DHT22;20410;55.578;12.968;2023-03-12T16:55:16;5.60;1.00
34135;DHT22;20410;55.578;12.968;2023-03-12T16:57:51;5.50;1.00
34135;DHT22;20410;55.578;12.968;2023-03-12T17:00:26;5.50;1.00
34135;DHT22;20410;55.578;12.968;2023-03-12T17:02:53;5.50;1.00
34135;DHT22;20410;55.578;12.968;2023-03-12T17:05:23;5.50;1.00
34135;DHT22;20410;55.578;12.968;2023-03-12T17:07:49;5.50;1.00
34135;DHT22;20410;55.578;12.968;2023-03-12T17:10:15;5.50;1.00
34135;DHT22;20410;55.578;12.968;2023-03-12T17:12:41;5.50;1.00
34135;DHT22;20410;55.578;12.968;2023-03-12T17:15:25;5.50;1.00
34135;DHT22;20410;55.578;12.968;2023-03-12T17:17:51;5.50;1.00
34135;DHT22;20410;55.578;12.968;2023-03-12T17:20:19;5.50;1.00
34135;DHT22;20410;55.578;12.968;2023-03-12T17:22:45;5.50;1.00
34135;DHT22;20410;55.578;12.968;2023-03-12T17:25:26;5.50;1.00
34135;DHT22;20410;55.578;12.968;2023-03-12T17:27:52;5.50;1.00
34135;DHT22;20410;55.578;12.968;2023-03-12T17:30:20;5.50;1.00
34135;DHT22;20410;55.578;12.968;2023-03-12T17:32:46;5.50;1.00
34135;DHT22;20410;55.578;12.968;2023-03-12T17:35:12;5.40;1.00
34135;DHT22;20410;55.578;12.968;2023-03-12T17:37:38;5.50;1.00